< < Back
Terminal Aerodrome Forecast


Current Version              Previous Versions:   1  2  3  4  5  6  7  8  9  

Terminal Aerodrome Forecast

506
FTUS42 KMLB 212300 RRA
TAFMCO
TAF
KMCO 212342Z 2200/2224 17005KT P6SM -TSRA FEW005 SCT045CB OVC100
     FM220200 VRB02KT P6SM SCT250
     FM221400 VRB05KT P6SM SCT035
     FM222000 09009KT P6SM VCTS SCT045CB SCT080 BKN250
      TEMPO 2220/2222 2SM TSRA BKN025CB=

Latest METAR

248
SAUS70 KWBC 221300 RRB
MTRMCO
METAR KMCO 221253Z 00000KT 10SM FEW008 FEW230 27/23 A3007 RMK AO2 SLP179
T02670228 $


USA.gov is the U.S. government's official web portal to all federal, state and local government web resources and services.